createdAt,value
2016-06-22T00:00:06.213Z,0
2016-06-22T00:01:07.703Z,0
2016-06-22T00:02:07.405Z,0
2016-06-22T00:03:06.207Z,0
2016-06-22T00:04:06.850Z,0
2016-06-22T00:05:07.499Z,0
2016-06-22T00:06:06.290Z,0
2016-06-22T00:07:06.325Z,0
2016-06-22T00:08:06.970Z,0
2016-06-22T00:09:08.213Z,0
2016-06-22T00:10:08.451Z,0
2016-06-22T00:11:07.043Z,0
2016-06-22T00:12:07.679Z,0
2016-06-22T00:13:06.473Z,0
2016-06-22T00:14:07.848Z,0
2016-06-22T00:15:07.347Z,0
2016-06-22T00:16:06.544Z,0
2016-06-22T00:17:08.439Z,0
2016-06-22T00:18:08.458Z,0
2016-06-22T00:19:07.313Z,0
2016-06-22T00:20:07.290Z,0
2016-06-22T00:21:07.315Z,0
2016-06-22T00:22:06.845Z,0
2016-06-22T00:23:07.358Z,0
2016-06-22T00:24:07.409Z,0
2016-06-22T00:25:07.489Z,0
2016-06-22T00:26:08.061Z,0
2016-06-22T00:27:07.470Z,0
2016-06-22T00:28:08.080Z,0
2016-06-22T00:29:07.585Z,0
2016-06-22T00:30:07.568Z,0
2016-06-22T00:31:06.944Z,0
2016-06-22T00:32:09.041Z,0
2016-06-22T00:33:08.243Z,0
2016-06-22T00:34:08.251Z,0
2016-06-22T00:35:07.066Z,0
2016-06-22T00:36:08.311Z,0
2016-06-22T00:37:07.726Z,0
2016-06-22T00:38:07.906Z,0
2016-06-22T00:39:08.403Z,0
2016-06-22T00:40:08.689Z,0
2016-06-22T00:41:09.342Z,0
2016-06-22T00:42:08.500Z,0
2016-06-22T00:43:07.911Z,0
2016-06-22T00:44:08.537Z,0
2016-06-22T00:45:07.934Z,0
2016-06-22T00:46:08.573Z,0
2016-06-22T00:47:08.599Z,0
2016-06-22T00:48:08.041Z,0
2016-06-22T00:49:08.654Z,0
2016-06-22T00:50:07.472Z,0
2016-06-22T00:51:08.131Z,0
2016-06-22T00:52:08.128Z,0
2016-06-22T00:53:08.767Z,0
2016-06-22T00:54:09.410Z,0
2016-06-22T00:55:08.811Z,0
2016-06-22T00:56:08.858Z,0
2016-06-22T00:57:08.875Z,0
2016-06-22T00:58:08.927Z,0
2016-06-22T00:59:07.815Z,0
2016-06-22T01:00:08.342Z,0
2016-06-22T01:01:07.761Z,0
2016-06-22T01:02:07.191Z,0
2016-06-22T01:03:07.816Z,0
2016-06-22T01:04:08.454Z,0
2016-06-22T01:05:09.092Z,0
2016-06-22T01:06:09.164Z,0
2016-06-22T01:07:09.126Z,0
2016-06-22T01:08:08.571Z,0
2016-06-22T01:09:07.974Z,0
2016-06-22T01:10:08.905Z,0
2016-06-22T01:11:08.648Z,0
2016-06-22T01:12:08.672Z,0
2016-06-22T01:13:10.098Z,0
2016-06-22T01:14:09.932Z,0
2016-06-22T01:15:09.352Z,0
2016-06-22T01:16:07.701Z,0
2016-06-22T01:17:09.020Z,0
2016-06-22T01:18:08.816Z,0
2016-06-22T01:19:09.432Z,0
2016-06-22T01:20:09.485Z,0
2016-06-22T01:21:08.283Z,0
2016-06-22T01:22:08.302Z,0
2016-06-22T01:23:08.987Z,0
2016-06-22T01:24:10.201Z,0
2016-06-22T01:25:09.008Z,0
2016-06-22T01:26:09.034Z,0
2016-06-22T01:27:09.064Z,0
2016-06-22T01:28:09.082Z,0
2016-06-22T01:29:09.110Z,0
2016-06-22T01:30:10.568Z,0
2016-06-22T01:31:09.162Z,0
2016-06-22T01:32:08.588Z,0
2016-06-22T01:33:08.606Z,0
2016-06-22T01:34:08.186Z,0
2016-06-22T01:35:09.965Z,0
2016-06-22T01:36:09.343Z,0
2016-06-22T01:37:09.317Z,0
2016-06-22T01:38:08.123Z,0
2016-06-22T01:39:09.985Z,0
2016-06-22T01:40:10.011Z,0
2016-06-22T01:41:09.035Z,0
2016-06-22T01:42:10.071Z,0
2016-06-22T01:43:09.459Z,0
2016-06-22T01:44:09.518Z,0
2016-06-22T01:45:10.139Z,0
2016-06-22T01:46:10.782Z,0
2016-06-22T01:47:09.599Z,0
2016-06-22T01:48:09.628Z,0
2016-06-22T01:49:09.068Z,0
2016-06-22T01:50:09.088Z,0
2016-06-22T01:51:09.714Z,0
2016-06-22T01:52:09.715Z,0
2016-06-22T01:53:09.134Z,0
2016-06-22T01:54:09.782Z,0
2016-06-22T01:55:09.172Z,0
2016-06-22T01:56:09.813Z,0
2016-06-22T01:57:10.463Z,0
2016-06-22T01:58:11.091Z,0
2016-06-22T01:59:10.701Z,0
2016-06-22T02:00:10.555Z,0
2016-06-22T02:01:10.556Z,0
2016-06-22T02:02:09.373Z,0
2016-06-22T02:03:10.624Z,0
2016-06-22T02:04:10.652Z,0
2016-06-22T02:05:10.061Z,0
2016-06-22T02:06:10.721Z,0
2016-06-22T02:07:10.839Z,0
2016-06-22T02:08:10.190Z,0
2016-06-22T02:09:10.269Z,0
2016-06-22T02:10:10.288Z,0
2016-06-22T02:11:10.304Z,0
2016-06-22T02:12:10.270Z,0
2016-06-22T02:13:10.257Z,0
2016-06-22T02:14:09.700Z,0
2016-06-22T02:15:10.949Z,0
2016-06-22T02:16:10.339Z,0
2016-06-22T02:17:11.094Z,0
2016-06-22T02:18:09.803Z,0
2016-06-22T02:19:11.100Z,0
2016-06-22T02:20:11.834Z,0
2016-06-22T02:21:11.093Z,0
2016-06-22T02:22:11.107Z,0
2016-06-22T02:23:10.529Z,0
2016-06-22T02:24:11.234Z,0
2016-06-22T02:25:10.794Z,0
2016-06-22T02:26:11.230Z,0
2016-06-22T02:27:10.831Z,0
2016-06-22T02:28:10.758Z,0
2016-06-22T02:29:11.303Z,0
2016-06-22T02:30:10.745Z,0
2016-06-22T02:31:11.351Z,0
2016-06-22T02:32:10.161Z,0
2016-06-22T02:33:12.021Z,0
2016-06-22T02:34:11.437Z,0
2016-06-22T02:35:10.851Z,0
2016-06-22T02:36:11.693Z,0
2016-06-22T02:37:12.215Z,0
2016-06-22T02:38:10.938Z,0
2016-06-22T02:39:12.173Z,0
2016-06-22T02:40:11.707Z,0
2016-06-22T02:41:11.618Z,0
2016-06-22T02:42:11.651Z,0
2016-06-22T02:43:10.650Z,0
2016-06-22T02:44:10.482Z,0
2016-06-22T02:45:11.108Z,0
2016-06-22T02:46:09.903Z,0
2016-06-22T02:47:11.256Z,0
2016-06-22T02:48:12.420Z,0
2016-06-22T02:49:11.800Z,0
2016-06-22T02:50:10.761Z,0
2016-06-22T02:51:11.888Z,0
2016-06-22T02:52:11.310Z,0
2016-06-22T02:53:11.960Z,0
2016-06-22T02:54:11.546Z,0
2016-06-22T02:55:10.970Z,0
2016-06-22T02:56:10.806Z,0
2016-06-22T02:57:12.660Z,0
2016-06-22T02:58:10.858Z,0
2016-06-22T02:59:12.104Z,0
2016-06-22T03:00:10.891Z,0
2016-06-22T03:01:12.155Z,0
2016-06-22T03:02:12.369Z,0
2016-06-22T03:03:12.205Z,0
2016-06-22T03:04:11.595Z,0
2016-06-22T03:05:11.661Z,0
2016-06-22T03:06:11.054Z,0
2016-06-22T03:07:12.903Z,0
2016-06-22T03:08:11.705Z,0
2016-06-22T03:09:13.225Z,0
2016-06-22T03:10:11.138Z,0
2016-06-22T03:11:11.869Z,0
2016-06-22T03:12:12.636Z,0
2016-06-22T03:13:11.226Z,0
2016-06-22T03:14:11.879Z,0
2016-06-22T03:15:12.500Z,0
2016-06-22T03:16:12.517Z,0
2016-06-22T03:17:11.352Z,0
2016-06-22T03:18:12.677Z,0
2016-06-22T03:19:11.988Z,0
2016-06-22T03:20:12.008Z,0
2016-06-22T03:21:11.431Z,0
2016-06-22T03:22:12.669Z,0
2016-06-22T03:23:10.873Z,0
2016-06-22T03:24:11.504Z,0
2016-06-22T03:25:12.128Z,0
2016-06-22T03:26:12.793Z,0
2016-06-22T03:27:12.196Z,0
2016-06-22T03:28:12.883Z,0
2016-06-22T03:29:12.861Z,0
2016-06-22T03:30:13.502Z,0
2016-06-22T03:31:12.291Z,0
2016-06-22T03:32:12.938Z,0
2016-06-22T03:33:11.767Z,0
2016-06-22T03:34:12.382Z,0
2016-06-22T03:35:13.015Z,0
2016-06-22T03:36:12.436Z,0
2016-06-22T03:37:12.461Z,0
2016-06-22T03:38:13.097Z,0
2016-06-22T03:39:12.512Z,0
2016-06-22T03:40:11.924Z,0
2016-06-22T03:41:12.565Z,0
2016-06-22T03:42:12.581Z,0
2016-06-22T03:43:11.991Z,0
2016-06-22T03:44:12.634Z,0
2016-06-22T03:45:13.900Z,0
2016-06-22T03:46:12.079Z,0
2016-06-22T03:47:12.733Z,0
2016-06-22T03:48:13.363Z,0
2016-06-22T03:49:13.386Z,0
2016-06-22T03:50:14.027Z,0
2016-06-22T03:51:12.223Z,0
2016-06-22T03:52:13.451Z,0
2016-06-22T03:53:12.860Z,0
2016-06-22T03:54:12.903Z,0
2016-06-22T03:55:12.295Z,0
2016-06-22T03:56:13.575Z,0
2016-06-22T03:57:12.970Z,0
2016-06-22T03:58:13.011Z,0
2016-06-22T03:59:12.421Z,0
2016-06-22T04:00:13.073Z,0
2016-06-22T04:01:14.309Z,0
2016-06-22T04:02:13.717Z,0
2016-06-22T04:03:13.142Z,0
2016-06-22T04:04:13.160Z,0
2016-06-22T04:05:12.601Z,0
2016-06-22T04:06:13.207Z,5
2016-06-22T04:07:13.839Z,5
2016-06-22T04:08:12.641Z,5
2016-06-22T04:09:13.899Z,5
2016-06-22T04:10:12.742Z,5
2016-06-22T04:11:13.984Z,5
2016-06-22T04:12:13.357Z,5
2016-06-22T04:13:14.003Z,5
2016-06-22T04:14:14.033Z,5
2016-06-22T04:15:14.705Z,5
2016-06-22T04:16:13.470Z,5
2016-06-22T04:17:13.510Z,5
2016-06-22T04:18:13.550Z,5
2016-06-22T04:19:14.163Z,5
2016-06-22T04:20:12.998Z,5
2016-06-22T04:21:14.205Z,5
2016-06-22T04:22:13.633Z,5
2016-06-22T04:23:13.661Z,5
2016-06-22T04:24:13.677Z,5
2016-06-22T04:25:13.101Z,5
2016-06-22T04:26:13.733Z,5
2016-06-22T04:27:14.353Z,5
2016-06-22T04:28:13.179Z,5
2016-06-22T04:29:15.033Z,5
2016-06-22T04:30:14.444Z,5
2016-06-22T04:31:14.443Z,5
2016-06-22T04:32:13.888Z,5
2016-06-22T04:33:15.128Z,5
2016-06-22T04:34:13.930Z,5
2016-06-22T04:35:15.174Z,10
2016-06-22T04:36:13.412Z,5
2016-06-22T04:37:14.004Z,5
2016-06-22T04:38:14.053Z,5
2016-06-22T04:39:14.070Z,5
2016-06-22T04:40:12.862Z,10
2016-06-22T04:41:14.123Z,10
2016-06-22T04:42:14.148Z,10
2016-06-22T04:43:14.760Z,10
2016-06-22T04:44:14.183Z,10
2016-06-22T04:45:13.598Z,10
2016-06-22T04:46:14.218Z,10
2016-06-22T04:47:14.272Z,10
2016-06-22T04:48:13.687Z,10
2016-06-22T04:49:15.583Z,10
2016-06-22T04:50:14.957Z,10
2016-06-22T04:51:14.384Z,10
2016-06-22T04:52:13.799Z,10
2016-06-22T04:53:14.454Z,10
2016-06-22T04:54:13.839Z,10
2016-06-22T04:55:13.858Z,10
2016-06-22T04:56:14.499Z,10
2016-06-22T04:57:14.549Z,10
2016-06-22T04:58:15.183Z,10
2016-06-22T04:59:13.973Z,10
2016-06-22T05:00:14.606Z,10
2016-06-22T05:01:14.035Z,10
2016-06-22T05:02:14.663Z,10
2016-06-22T05:03:14.710Z,10
2016-06-22T05:04:15.972Z,10
2016-06-22T05:05:16.076Z,10
2016-06-22T05:06:14.781Z,10
2016-06-22T05:07:14.799Z,10
2016-06-22T05:08:14.879Z,10
2016-06-22T05:09:14.231Z,10
2016-06-22T05:10:15.630Z,10
2016-06-22T05:11:15.606Z,10
2016-06-22T05:12:14.322Z,10
2016-06-22T05:13:15.700Z,10
2016-06-22T05:14:15.712Z,10
2016-06-22T05:15:14.432Z,10
2016-06-22T05:16:14.359Z,10
2016-06-22T05:17:15.728Z,10
2016-06-22T05:18:16.292Z,10
2016-06-22T05:19:15.061Z,10
2016-06-22T05:20:14.523Z,10
2016-06-22T05:21:15.362Z,15
2016-06-22T05:22:15.156Z,15
2016-06-22T05:23:15.198Z,15
2016-06-22T05:24:15.403Z,15
2016-06-22T05:25:15.208Z,15
2016-06-22T05:26:15.257Z,15
2016-06-22T05:27:15.892Z,15
2016-06-22T05:28:15.931Z,15
2016-06-22T05:29:15.968Z,15
2016-06-22T05:30:15.375Z,15
2016-06-22T05:31:16.045Z,15
2016-06-22T05:32:16.045Z,15
2016-06-22T05:33:16.090Z,15
2016-06-22T05:34:15.471Z,15
2016-06-22T05:35:15.506Z,15
2016-06-22T05:36:15.523Z,15
2016-06-22T05:37:14.952Z,15
2016-06-22T05:38:16.208Z,15
2016-06-22T05:39:14.351Z,15
2016-06-22T05:40:16.857Z,15
2016-06-22T05:41:15.041Z,15
2016-06-22T05:42:16.286Z,15
2016-06-22T05:43:15.712Z,15
2016-06-22T05:44:15.131Z,15
2016-06-22T05:45:15.753Z,15
2016-06-22T05:46:15.213Z,15
2016-06-22T05:47:15.191Z,15
2016-06-22T05:48:16.452Z,15
2016-06-22T05:49:14.725Z,15
2016-06-22T05:50:15.903Z,15
2016-06-22T05:51:15.913Z,20
2016-06-22T05:52:16.676Z,20
2016-06-22T05:53:15.973Z,20
2016-06-22T05:54:16.610Z,20
2016-06-22T05:55:16.643Z,20
2016-06-22T05:56:16.671Z,20
2016-06-22T05:57:16.730Z,20
2016-06-22T05:58:16.715Z,20
2016-06-22T05:59:15.521Z,20
2016-06-22T06:00:15.088Z,20
2016-06-22T06:01:16.357Z,20
2016-06-22T06:02:16.214Z,20
2016-06-22T06:03:15.607Z,20
2016-06-22T06:04:17.502Z,20
2016-06-22T06:05:16.918Z,20
2016-06-22T06:06:16.302Z,20
2016-06-22T06:07:15.792Z,20
2016-06-22T06:08:16.394Z,25
2016-06-22T06:09:15.783Z,25
2016-06-22T06:10:17.044Z,25
2016-06-22T06:11:15.870Z,25
2016-06-22T06:12:17.095Z,25
2016-06-22T06:13:17.119Z,25
2016-06-22T06:14:16.518Z,25
2016-06-22T06:15:16.562Z,25
2016-06-22T06:16:16.581Z,25
2016-06-22T06:17:17.235Z,25
2016-06-22T06:18:16.623Z,25
2016-06-22T06:19:17.301Z,25
2016-06-22T06:20:16.675Z,25
2016-06-22T06:21:17.344Z,25
2016-06-22T06:22:17.362Z,25
2016-06-22T06:23:17.386Z,25
2016-06-22T06:24:16.828Z,30
2016-06-22T06:25:16.853Z,30
2016-06-22T06:26:17.572Z,25
2016-06-22T06:27:17.524Z,25
2016-06-22T06:28:16.307Z,30
2016-06-22T06:29:17.624Z,30
2016-06-22T06:30:18.240Z,25
2016-06-22T06:31:18.254Z,25
2016-06-22T06:32:17.625Z,25
2016-06-22T06:33:18.325Z,30
2016-06-22T06:34:17.705Z,30
2016-06-22T06:35:17.711Z,30
2016-06-22T06:36:17.835Z,30
2016-06-22T06:37:17.131Z,30
2016-06-22T06:38:17.200Z,30
2016-06-22T06:39:17.822Z,30
2016-06-22T06:40:17.222Z,30
2016-06-22T06:41:17.878Z,30
2016-06-22T06:42:16.714Z,25
2016-06-22T06:43:16.726Z,25
2016-06-22T06:44:17.945Z,25
2016-06-22T06:45:17.991Z,25
2016-06-22T06:46:18.758Z,25
2016-06-22T06:47:17.441Z,25
2016-06-22T06:48:17.501Z,25
2016-06-22T06:49:16.237Z,25
2016-06-22T06:50:17.491Z,25
2016-06-22T06:51:17.522Z,25
2016-06-22T06:52:17.647Z,30
2016-06-22T06:53:16.973Z,30
2016-06-22T06:54:18.832Z,30
2016-06-22T06:55:18.241Z,30
2016-06-22T06:56:18.291Z,30
2016-06-22T06:57:18.429Z,30
2016-06-22T06:58:18.437Z,30
2016-06-22T06:59:18.981Z,35
2016-06-22T07:00:19.022Z,35
2016-06-22T07:01:18.430Z,35
2016-06-22T07:02:18.595Z,35
2016-06-22T07:03:17.859Z,35
2016-06-22T07:04:17.905Z,35
2016-06-22T07:05:19.151Z,30
2016-06-22T07:06:17.318Z,30
2016-06-22T07:07:18.585Z,30
2016-06-22T07:08:18.712Z,30
2016-06-22T07:09:18.650Z,30
2016-06-22T07:10:18.057Z,30
2016-06-22T07:11:17.471Z,30
2016-06-22T07:12:18.877Z,30
2016-06-22T07:13:18.833Z,30
2016-06-22T07:14:18.170Z,35
2016-06-22T07:15:18.256Z,35
2016-06-22T07:16:19.463Z,35
2016-06-22T07:17:19.591Z,35
2016-06-22T07:18:17.695Z,35
2016-06-22T07:19:18.494Z,35
2016-06-22T07:20:17.255Z,35
2016-06-22T07:21:20.405Z,30
2016-06-22T07:22:18.550Z,30
2016-06-22T07:23:19.026Z,30
2016-06-22T07:24:17.879Z,25
2016-06-22T07:25:19.767Z,25
2016-06-22T07:26:19.590Z,30
2016-06-22T07:27:18.626Z,30
2016-06-22T07:28:19.342Z,30
2016-06-22T07:29:17.461Z,30
2016-06-22T07:30:19.635Z,30
2016-06-22T07:31:19.949Z,30
2016-06-22T07:32:19.696Z,30
2016-06-22T07:33:18.273Z,30
2016-06-22T07:34:19.290Z,30
2016-06-22T07:35:20.415Z,30
2016-06-22T07:36:20.244Z,35
2016-06-22T07:37:19.302Z,35
2016-06-22T07:38:18.227Z,35
2016-06-22T07:39:21.015Z,35
2016-06-22T07:40:19.397Z,35
2016-06-22T07:41:19.970Z,35
2016-06-22T07:42:19.745Z,35
2016-06-22T07:43:19.361Z,35
2016-06-22T07:44:19.145Z,35
2016-06-22T07:45:20.100Z,35
2016-06-22T07:46:20.671Z,30
2016-06-22T07:47:18.479Z,25
2016-06-22T07:48:19.748Z,20
2016-06-22T07:49:19.880Z,25
2016-06-22T07:50:19.783Z,35
2016-06-22T07:51:19.197Z,40
2016-06-22T07:52:19.847Z,40
2016-06-22T07:53:19.949Z,45
2016-06-22T07:54:19.295Z,45
2016-06-22T07:55:20.037Z,45
2016-06-22T07:56:20.109Z,45
2016-06-22T07:57:20.002Z,45
2016-06-22T07:58:20.045Z,40
2016-06-22T07:59:20.058Z,35
2016-06-22T08:00:18.865Z,35
2016-06-22T08:01:20.101Z,35
2016-06-22T08:02:18.363Z,35
2016-06-22T08:03:19.649Z,35
2016-06-22T08:04:20.194Z,35
2016-06-22T08:05:20.262Z,35
2016-06-22T08:06:19.636Z,35
2016-06-22T08:07:19.655Z,40
2016-06-22T08:08:20.400Z,40
2016-06-22T08:09:19.172Z,40
2016-06-22T08:10:20.416Z,40
2016-06-22T08:11:20.407Z,40
2016-06-22T08:12:19.832Z,40
2016-06-22T08:13:21.083Z,40
2016-06-22T08:14:20.581Z,40
2016-06-22T08:15:20.524Z,35
2016-06-22T08:16:20.533Z,35
2016-06-22T08:17:19.968Z,35
2016-06-22T08:18:20.070Z,40
2016-06-22T08:19:19.487Z,40
2016-06-22T08:20:20.097Z,35
2016-06-22T08:21:20.161Z,35
2016-06-22T08:22:20.721Z,35
2016-06-22T08:23:20.285Z,35
2016-06-22T08:24:20.780Z,35
2016-06-22T08:25:20.193Z,30
2016-06-22T08:26:20.394Z,30
2016-06-22T08:27:20.349Z,30
2016-06-22T08:28:20.386Z,30
2016-06-22T08:29:20.395Z,30
2016-06-22T08:30:20.371Z,30
2016-06-22T08:31:20.443Z,30
2016-06-22T08:32:21.656Z,30
2016-06-22T08:33:20.490Z,30
2016-06-22T08:34:20.658Z,30
2016-06-22T08:35:20.688Z,30
2016-06-22T08:36:20.655Z,35
2016-06-22T08:37:20.545Z,40
2016-06-22T08:38:19.965Z,30
2016-06-22T08:39:21.351Z,35
2016-06-22T08:40:21.264Z,50
2016-06-22T08:41:21.989Z,40
2016-06-22T08:42:21.939Z,45
2016-06-22T08:43:20.106Z,45
2016-06-22T08:44:20.143Z,50
2016-06-22T08:45:22.029Z,60
2016-06-22T08:46:20.194Z,55
2016-06-22T08:47:22.180Z,50
2016-06-22T08:48:22.203Z,45
2016-06-22T08:49:21.523Z,40
2016-06-22T08:50:20.969Z,35
2016-06-22T08:51:20.974Z,35
2016-06-22T08:52:20.483Z,30
2016-06-22T08:53:21.727Z,20
2016-06-22T08:54:21.208Z,20
2016-06-22T08:55:21.717Z,20
2016-06-22T08:56:21.273Z,20
2016-06-22T08:57:21.917Z,20
2016-06-22T08:58:21.254Z,20
2016-06-22T08:59:21.214Z,25
2016-06-22T09:00:22.022Z,30
2016-06-22T09:01:21.266Z,30
2016-06-22T09:02:21.933Z,30
2016-06-22T09:03:22.678Z,30
2016-06-22T09:04:22.071Z,25
2016-06-22T09:05:21.527Z,25
2016-06-22T09:06:23.407Z,30
2016-06-22T09:07:22.169Z,30
2016-06-22T09:08:20.348Z,30
2016-06-22T09:09:20.992Z,30
2016-06-22T09:10:21.669Z,30
2016-06-22T09:11:21.584Z,30
2016-06-22T09:12:21.657Z,35
2016-06-22T09:13:21.759Z,35
2016-06-22T09:14:22.339Z,35
2016-06-22T09:15:23.042Z,30
2016-06-22T09:16:21.733Z,35
2016-06-22T09:17:21.262Z,45
2016-06-22T09:18:22.425Z,45
2016-06-22T09:19:21.193Z,45
2016-06-22T09:20:21.862Z,50
2016-06-22T09:21:22.760Z,60
2016-06-22T09:22:21.450Z,55
2016-06-22T09:23:20.727Z,50
2016-06-22T09:24:22.598Z,40
2016-06-22T09:25:22.100Z,35
2016-06-22T09:26:22.737Z,30
2016-06-22T09:27:23.317Z,30
2016-06-22T09:28:23.402Z,25
2016-06-22T09:29:22.890Z,25
2016-06-22T09:30:22.781Z,30
2016-06-22T09:31:22.677Z,30
2016-06-22T09:32:21.063Z,35
2016-06-22T09:33:21.658Z,40
2016-06-22T09:34:23.649Z,40
2016-06-22T09:35:22.689Z,45
2016-06-22T09:36:22.342Z,45
2016-06-22T09:37:23.694Z,45
2016-06-22T09:38:23.057Z,40
2016-06-22T09:39:22.446Z,40
2016-06-22T09:40:23.084Z,40
2016-06-22T09:41:23.754Z,45
2016-06-22T09:42:23.151Z,45
2016-06-22T09:43:23.192Z,50
2016-06-22T09:44:23.865Z,50
2016-06-22T09:45:23.366Z,45
2016-06-22T09:46:22.686Z,40
2016-06-22T09:47:23.329Z,40
2016-06-22T09:48:23.540Z,35
2016-06-22T09:49:22.754Z,40
2016-06-22T09:50:23.426Z,40
2016-06-22T09:51:24.053Z,50
2016-06-22T09:52:22.868Z,60
2016-06-22T09:53:23.531Z,60
2016-06-22T09:54:23.607Z,60
2016-06-22T09:55:23.043Z,65
2016-06-22T09:56:22.395Z,65
2016-06-22T09:57:22.473Z,70
2016-06-22T09:58:23.841Z,60
2016-06-22T09:59:23.771Z,50
2016-06-22T10:00:23.114Z,45
2016-06-22T10:01:23.741Z,40
2016-06-22T10:02:24.491Z,40
2016-06-22T10:03:23.199Z,45
2016-06-22T10:04:23.849Z,50
2016-06-22T10:05:24.053Z,55
2016-06-22T10:06:23.959Z,55
2016-06-22T10:07:23.941Z,60
2016-06-22T10:08:23.361Z,60
2016-06-22T10:09:22.779Z,60
2016-06-22T10:10:23.461Z,75
2016-06-22T10:11:24.063Z,65
2016-06-22T10:12:24.199Z,60
2016-06-22T10:13:22.987Z,55
2016-06-22T10:14:22.978Z,60
2016-06-22T10:15:23.606Z,60
2016-06-22T10:16:24.218Z,55
2016-06-22T10:17:24.268Z,50
2016-06-22T10:18:25.013Z,50
2016-06-22T10:19:24.481Z,55
2016-06-22T10:20:23.876Z,45
2016-06-22T10:21:23.241Z,30
2016-06-22T10:22:24.418Z,25
2016-06-22T10:23:23.823Z,30
2016-06-22T10:24:24.549Z,35
2016-06-22T10:25:23.330Z,60
2016-06-22T10:26:23.915Z,70
2016-06-22T10:27:24.591Z,70
2016-06-22T10:28:24.610Z,65
2016-06-22T10:29:24.186Z,65
2016-06-22T10:30:26.075Z,55
2016-06-22T10:31:24.103Z,55
2016-06-22T10:32:24.976Z,50
2016-06-22T10:33:24.259Z,45
2016-06-22T10:34:24.215Z,45
2016-06-22T10:35:24.308Z,45
2016-06-22T10:36:23.080Z,45
2016-06-22T10:37:24.937Z,50
2016-06-22T10:38:23.713Z,50
2016-06-22T10:39:23.717Z,50
2016-06-22T10:40:24.484Z,45
2016-06-22T10:41:25.128Z,45
2016-06-22T10:42:24.661Z,45
2016-06-22T10:43:24.759Z,45
2016-06-22T10:44:25.179Z,45
2016-06-22T10:45:23.950Z,50
2016-06-22T10:46:23.343Z,55
2016-06-22T10:47:25.874Z,55
2016-06-22T10:48:25.316Z,60
2016-06-22T10:49:25.336Z,70
2016-06-22T10:50:24.715Z,70
2016-06-22T10:51:25.354Z,70
2016-06-22T10:52:24.782Z,65
2016-06-22T10:53:24.831Z,65
2016-06-22T10:54:24.419Z,60
2016-06-22T10:55:24.431Z,65
2016-06-22T10:56:26.167Z,65
2016-06-22T10:57:24.956Z,65
2016-06-22T10:58:24.982Z,60
2016-06-22T10:59:25.081Z,55
2016-06-22T11:00:25.662Z,55
2016-06-22T11:01:25.728Z,55
2016-06-22T11:02:25.812Z,60
2016-06-22T11:03:23.983Z,65
2016-06-22T11:04:25.191Z,65
2016-06-22T11:05:25.209Z,70
2016-06-22T11:06:25.254Z,70
2016-06-22T11:07:25.884Z,70
2016-06-22T11:08:24.762Z,70
2016-06-22T11:09:24.724Z,70
2016-06-22T11:10:26.661Z,70
2016-06-22T11:11:26.633Z,65
2016-06-22T11:12:26.040Z,65
2016-06-22T11:13:24.892Z,65
2016-06-22T11:14:26.199Z,65
2016-06-22T11:15:25.599Z,65
2016-06-22T11:16:26.243Z,65
2016-06-22T11:17:25.603Z,70
2016-06-22T11:18:25.234Z,65
2016-06-22T11:19:25.053Z,65
2016-06-22T11:20:26.997Z,60
2016-06-22T11:21:25.107Z,55
2016-06-22T11:22:27.011Z,60
2016-06-22T11:23:26.646Z,60
2016-06-22T11:24:26.469Z,60
2016-06-22T11:25:25.331Z,65
2016-06-22T11:26:27.170Z,70
2016-06-22T11:27:27.180Z,80
2016-06-22T11:28:24.734Z,75
2016-06-22T11:29:25.994Z,55
2016-06-22T11:30:26.672Z,50
2016-06-22T11:31:26.710Z,50
2016-06-22T11:32:26.097Z,60
2016-06-22T11:33:25.523Z,75
2016-06-22T11:34:25.541Z,75
2016-06-22T11:35:26.278Z,75
2016-06-22T11:36:24.994Z,85
2016-06-22T11:37:25.753Z,85
2016-06-22T11:38:26.289Z,90
2016-06-22T11:39:25.158Z,90
2016-06-22T11:40:27.681Z,50
2016-06-22T11:41:27.066Z,45
2016-06-22T11:42:26.771Z,45
2016-06-22T11:43:27.509Z,45
2016-06-22T11:44:25.892Z,55
2016-06-22T11:45:27.247Z,70
2016-06-22T11:46:26.637Z,90
2016-06-22T11:47:27.225Z,65
2016-06-22T11:48:27.356Z,45
2016-06-22T11:49:27.355Z,35
2016-06-22T11:50:26.719Z,35
2016-06-22T11:51:26.116Z,45
2016-06-22T11:52:28.075Z,60
2016-06-22T11:53:26.841Z,65
2016-06-22T11:54:26.958Z,65
2016-06-22T11:55:28.203Z,85
2016-06-22T11:56:26.905Z,85
2016-06-22T11:57:26.941Z,85
2016-06-22T11:58:27.626Z,75
2016-06-22T11:59:28.502Z,70
2016-06-22T12:00:27.074Z,70
2016-06-22T12:01:27.759Z,75
2016-06-22T12:02:27.095Z,75
2016-06-22T12:03:27.337Z,45
2016-06-22T12:04:27.307Z,80
2016-06-22T12:05:27.220Z,75
2016-06-22T12:06:27.965Z,75
2016-06-22T12:07:27.923Z,70
2016-06-22T12:08:27.387Z,70
2016-06-22T12:09:28.007Z,75
2016-06-22T12:10:28.044Z,65
2016-06-22T12:11:28.197Z,60
2016-06-22T12:12:27.482Z,85
2016-06-22T12:13:28.195Z,85
2016-06-22T12:15:28.182Z,95
2016-06-22T12:16:27.630Z,85
2016-06-22T12:17:26.389Z,90
2016-06-22T12:18:27.149Z,90
2016-06-22T12:19:27.089Z,60
2016-06-22T12:20:27.346Z,70
2016-06-22T12:21:28.400Z,80
2016-06-22T12:22:27.803Z,60
2016-06-22T12:23:29.165Z,55
2016-06-22T12:24:27.895Z,70
2016-06-22T12:25:28.598Z,70
2016-06-22T12:26:28.601Z,70
2016-06-22T12:27:28.690Z,70
2016-06-22T12:28:28.064Z,50
2016-06-22T12:29:28.147Z,40
2016-06-22T12:30:26.973Z,40
2016-06-22T12:31:27.614Z,85
2016-06-22T12:32:28.180Z,65
2016-06-22T12:33:28.825Z,75
2016-06-22T12:34:28.278Z,70
2016-06-22T12:35:27.662Z,115
2016-06-22T12:36:28.304Z,105
2016-06-22T12:37:28.967Z,85
2016-06-22T12:38:28.378Z,85
2016-06-22T12:39:27.775Z,100
2016-06-22T12:40:29.062Z,100
2016-06-22T12:41:29.805Z,105
2016-06-22T12:42:29.205Z,55
2016-06-22T12:43:27.947Z,75
2016-06-22T12:44:28.612Z,95
2016-06-22T12:45:29.236Z,90
2016-06-22T12:46:29.276Z,90
2016-06-22T12:47:29.302Z,95
2016-06-22T12:48:29.363Z,90
2016-06-22T12:49:28.870Z,95
2016-06-22T12:50:29.516Z,90
2016-06-22T12:51:28.854Z,85
2016-06-22T12:52:28.892Z,80
2016-06-22T12:53:29.001Z,80
2016-06-22T12:54:27.699Z,80
2016-06-22T12:55:29.624Z,85
2016-06-22T12:56:30.254Z,85
2016-06-22T12:57:29.890Z,90
2016-06-22T12:58:29.127Z,90
2016-06-22T12:59:29.272Z,95
2016-06-22T13:00:27.921Z,95
2016-06-22T13:01:30.441Z,90
2016-06-22T13:02:29.301Z,85
2016-06-22T13:03:30.055Z,90
2016-06-22T13:04:28.739Z,35
2016-06-22T13:05:28.750Z,30
2016-06-22T13:06:28.756Z,25
2016-06-22T13:07:28.810Z,30
2016-06-22T13:08:28.843Z,35
2016-06-22T13:09:29.030Z,35
2016-06-22T13:10:29.526Z,40
2016-06-22T13:11:30.167Z,45
2016-06-22T13:12:30.218Z,55
2016-06-22T13:13:29.655Z,115
2016-06-22T13:14:29.094Z,140
2016-06-22T13:15:29.731Z,140
2016-06-22T13:16:28.502Z,130
2016-06-22T13:17:30.407Z,125
2016-06-22T13:18:30.446Z,90
2016-06-22T13:19:29.855Z,80
2016-06-22T13:20:29.906Z,50
2016-06-22T13:21:29.338Z,45
2016-06-22T13:22:31.301Z,60
2016-06-22T13:23:30.651Z,60
2016-06-22T13:24:30.667Z,115
2016-06-22T13:25:31.326Z,120
2016-06-22T13:26:31.443Z,65
2016-06-22T13:27:30.160Z,70
2016-06-22T13:28:29.577Z,85
2016-06-22T13:29:29.605Z,65
2016-06-22T13:30:30.884Z,55
2016-06-22T13:32:31.086Z,45
2016-06-22T13:33:31.111Z,40
2016-06-22T13:34:29.819Z,40
2016-06-22T13:35:31.876Z,45
2016-06-22T13:36:29.902Z,45
2016-06-22T13:37:31.143Z,50
2016-06-22T13:38:30.573Z,50
2016-06-22T13:39:31.315Z,50
2016-06-22T13:40:30.693Z,50
2016-06-22T13:41:31.198Z,50
2016-06-22T13:42:29.499Z,60
2016-06-22T13:43:32.081Z,65
2016-06-22T13:44:31.427Z,65
2016-06-22T13:45:32.089Z,70
2016-06-22T13:46:30.894Z,75
2016-06-22T13:47:32.165Z,80
2016-06-22T13:48:32.192Z,85
2016-06-22T13:49:32.228Z,85
2016-06-22T13:50:31.634Z,90
2016-06-22T13:51:31.736Z,90
2016-06-22T13:52:31.141Z,75
2016-06-22T13:53:31.281Z,65
2016-06-22T13:54:31.949Z,60
2016-06-22T13:55:32.479Z,65
2016-06-22T13:56:31.862Z,95
2016-06-22T13:57:31.969Z,90
2016-06-22T13:58:32.061Z,65
2016-06-22T13:59:32.063Z,90
2016-06-22T14:00:30.818Z,85
2016-06-22T14:01:33.027Z,85
2016-06-22T14:02:30.884Z,85
2016-06-22T14:03:31.513Z,80
2016-06-22T14:04:32.182Z,80
2016-06-22T14:05:31.097Z,80
2016-06-22T14:06:31.240Z,80
2016-06-22T14:07:31.190Z,80
2016-06-22T14:08:32.324Z,85
2016-06-22T14:09:31.735Z,85
2016-06-22T14:10:32.450Z,95
2016-06-22T14:11:31.967Z,90
2016-06-22T14:12:32.499Z,90
2016-06-22T14:13:31.362Z,85
2016-06-22T14:14:31.362Z,85
2016-06-22T14:15:32.080Z,85
2016-06-22T14:16:31.484Z,90
2016-06-22T14:17:32.055Z,100
2016-06-22T14:18:30.999Z,95
2016-06-22T14:19:32.120Z,90
2016-06-22T14:20:32.770Z,85
2016-06-22T14:21:32.212Z,85
2016-06-22T14:22:31.802Z,85
2016-06-22T14:23:32.287Z,85
2016-06-22T14:24:32.354Z,85
2016-06-22T14:25:32.993Z,85
2016-06-22T14:26:33.031Z,90
2016-06-22T14:27:33.680Z,100